Erittäin korkea lämpötila Mistä: 21-07-2019 19:42 Mihin asti: 22-07-2019 22:00 Varoitus: Erittäin korkea lämpötila Taso: Keltainen info button
suomi:
Hellevaroitus: Lähivuorokauden aikana on odotettavissa tukalaa hellettä.

Lähimmät METAR asemat

 

EFPO - Pori (mil/Civ), Finland
Distance from station: PLU 42km
Päivitetty: 21/07/2019 22:50
Puolipilvistä
Puolipilvistä
 Wind from LLU
Tuuli: LLU 6 km/h
Lämpötila: 18°C
Kastepiste: 11°C
Kosteus: 64%
Ilmanpaine: 1015 hPa
Clouds: Puolipilvistä
Visibility: 10 km
Cloud details: Puolipilvistä 2377 m
2019/07/21 19:50 EFPO 211950Z AUTO 29003KT 9999 SCT078/// 18/11 Q1015
EFTU - Turku/Abo, Finland
Distance from station: E 68km
Päivitetty: 21/07/2019 22:50
Selkeätä
Selkeätä
 Wind from I
Tuuli: I 2 km/h
Lämpötila: 17°C
Kastepiste: 12°C
Kosteus: 73%
Ilmanpaine: 1015 hPa
Yhteenveto: Selkeätä
Visibility: greater than 10 km
2019/07/21 19:50 EFTU 211950Z AUTO 09001KT CAVOK 17/12 Q1015
 
EFTP - Tampere/Pirkkala, Finland
Distance from station: IKO 84km
Päivitetty: 21/07/2019 22:50
Selkeätä
Selkeätä
 Wind from IKA
Tuuli: IKA 6 km/h
Lämpötila: 21°C
Kastepiste: 11°C
Kosteus: 53%
Ilmanpaine: 1015 hPa
Yhteenveto: Selkeätä
Visibility: greater than 10 km
2019/07/21 19:50 EFTP 211950Z AUTO 12003KT 090V180 CAVOK 21/11 Q1015